Time;durP1;ratioP1;P1;durP2;ratioP2;P2;SDS_P1;SDS_P2;PMS_P1;PMS_P2;Temp;Humidity;BMP_temperature;BMP_pressure;BME280_temperature;BME280_humidity;BME280_pressure;Samples;Min_cycle;Max_cycle;Signal;HPM_P1;HPM_P2
2022/06/11 00:02:18;;;;;;;28.35;11.40;;;;;;;18.83;58.25;99487.97;4835491;29;20050;-95
2022/06/11 00:04:44;;;;;;;18.95;10.57;;;;;;;18.64;58.12;99465.78;4835963;29;20771;-92
2022/06/11 00:07:19;;;;;;;21.00;11.85;;;;;;;18.77;59.49;99495.81;4849773;29;20105;-96
2022/06/11 00:09:58;;;;;;;30.30;12.23;;;;;;;18.53;58.90;99463.59;4871894;29;20574;-91
2022/06/11 00:12:27;;;;;;;24.00;11.55;;;;;;;18.72;59.36;99503.59;4845778;29;20029;-90
2022/06/11 00:14:54;;;;;;;27.83;12.25;;;;;;;18.69;60.35;99510.63;4871105;29;20065;-90
2022/06/11 00:17:28;;;;;;;24.23;11.73;;;;;;;18.38;59.94;99467.22;4843096;29;20049;-94
2022/06/11 00:19:55;;;;;;;29.35;12.43;;;;;;;18.58;60.89;99509.59;4858971;29;20057;-92
2022/06/11 00:22:22;;;;;;;21.33;11.95;;;;;;;18.40;61.18;99484.25;4855355;29;20029;-94
2022/06/11 00:24:50;;;;;;;22.05;11.38;;;;;;;18.28;61.19;99473.34;4856641;29;20053;-90
2022/06/11 00:27:22;;;;;;;23.45;11.18;;;;;;;18.32;61.58;99496.34;4827939;29;20041;-90
2022/06/11 00:29:49;;;;;;;20.70;11.43;;;;;;;18.17;60.71;99472.25;4831658;29;20060;-96
2022/06/11 00:32:16;;;;;;;22.35;10.95;;;;;;;18.37;61.52;99509.88;4839996;29;20120;-91
2022/06/11 00:34:45;;;;;;;17.17;11.20;;;;;;;18.16;61.86;99481.75;4843083;29;20045;-90
2022/06/11 00:37:13;;;;;;;17.20;10.73;;;;;;;18.14;61.50;99495.13;4857666;29;20061;-91
2022/06/11 00:39:41;;;;;;;18.30;10.63;;;;;;;18.13;62.32;99504.59;4842167;29;20419;-90
2022/06/11 00:42:16;;;;;;;26.48;11.02;;;;;;;17.81;62.64;99461.19;4852189;29;20052;-96
2022/06/11 00:44:43;;;;;;;27.35;10.95;;;;;;;17.93;63.03;99489.88;4853126;29;20074;-90
2022/06/11 00:47:09;;;;;;;17.13;10.95;;;;;;;18.01;63.02;99524.84;4823773;29;20060;-91
2022/06/11 00:49:58;;;;;;;21.10;10.20;;;;;;;18.07;62.90;99529.75;4813488;29;20089;-91
2022/06/11 00:52:36;;;;;;;19.95;9.73;;;;;;;17.82;62.83;99486.84;4848884;29;20049;-91
2022/06/11 00:55:25;;;;;;;21.00;10.75;;;;;;;18.09;62.61;99532.16;4850431;29;20054;-92
2022/06/11 01:00:57;;;;;;;17.42;10.32;;;;;;;18.00;61.87;99510.22;4854949;29;20082;-95
2022/06/11 01:03:43;;;;;;;24.23;11.93;;;;;;;17.87;63.38;99502.38;4818331;29;20052;-90
2022/06/11 01:06:35;;;;;;;25.95;11.65;;;;;;;17.94;63.46;99541.25;4823407;29;20037;-90
2022/06/11 01:09:11;;;;;;;19.23;10.50;;;;;;;17.83;64.20;99546.53;4848642;29;20044;-94
2022/06/11 01:11:56;;;;;;;18.42;10.85;;;;;;;17.51;64.45;99512.47;4838898;29;20046;-90
2022/06/11 01:14:55;;;;;;;21.73;10.83;;;;;;;17.68;65.04;99550.88;4835208;29;20049;-92
2022/06/11 01:17:49;;;;;;;26.00;11.38;;;;;;;17.61;65.34;99556.19;4823204;29;20305;-90
2022/06/11 01:20:54;;;;;;;26.10;11.15;;;;;;;17.65;65.25;99557.09;4873858;29;20053;-90
2022/06/11 01:24:00;;;;;;;24.67;10.77;;;;;;;17.62;64.13;99555.06;4859207;29;20118;-96
2022/06/11 01:26:54;;;;;;;25.58;11.70;;;;;;;17.67;65.38;99553.97;4849202;29;20057;-96
2022/06/11 01:29:40;;;;;;;20.77;10.88;;;;;;;17.69;64.57;99557.19;4841775;29;20050;-96
2022/06/11 01:32:22;;;;;;;40.38;11.45;;;;;;;17.64;64.28;99551.91;4839974;29;20052;-91
2022/06/11 01:34:54;;;;;;;24.40;11.25;;;;;;;17.69;63.95;99549.69;4873766;29;20574;-92
2022/06/11 01:37:40;;;;;;;20.90;12.07;;;;;;;17.60;64.91;99546.28;4854983;29;20189;-91
2022/06/11 01:40:12;;;;;;;;;;;;;;;17.75;64.66;99564.88;4856257;29;20049;-92
2022/06/11 01:43:04;;;;;;;24.15;12.15;;;;;;;17.37;65.24;99502.66;4842384;29;19966;-92
2022/06/11 01:45:35;;;;;;;22.58;11.02;;;;;;;17.66;64.93;99544.09;4843599;29;20097;-90
2022/06/11 01:48:07;;;;;;;18.88;11.57;;;;;;;17.84;64.61;99565.53;4839544;29;20858;-90
2022/06/11 01:50:39;;;;;;;28.48;12.35;;;;;;;17.42;65.19;99498.84;4834238;29;20056;-92
2022/06/11 01:53:39;;;;;;;24.27;11.77;;;;;;;17.87;65.26;99568.75;4824531;29;20041;-90
2022/06/11 01:56:30;;;;;;;27.25;12.63;;;;;;;17.90;64.82;99565.28;4843892;29;20049;-90
2022/06/11 01:59:07;;;;;;;27.55;12.10;;;;;;;17.89;65.41;99569.19;4835819;29;20033;-90
2022/06/11 02:01:51;;;;;;;27.38;11.98;;;;;;;17.93;64.57;99572.84;4857827;29;20122;-91
2022/06/11 02:04:34;;;;;;;27.88;11.43;;;;;;;17.80;64.94;99561.06;4865924;29;20053;-90
2022/06/11 02:07:03;;;;;;;22.67;11.07;;;;;;;18.01;64.30;99575.47;4836524;29;20140;-96
2022/06/11 02:09:55;;;;;;;22.83;11.93;;;;;;;17.77;64.01;99520.28;4839156;29;20049;-96
2022/06/11 02:13:03;;;;;;;19.90;11.77;;;;;;;17.84;64.94;99514.94;4832908;29;20046;-91
2022/06/11 02:15:55;;;;;;;27.63;11.55;;;;;;;17.97;65.74;99535.81;4794945;29;20103;-96
2022/06/11 02:18:24;;;;;;;19.27;8.82;;;;;;;18.08;61.29;99536.91;4854351;29;20049;-96
2022/06/11 02:21:00;;;;;;;20.60;8.77;;;;;;;18.11;60.50;99524.28;4857821;29;20038;-91
2022/06/11 02:23:38;;;;;;;15.98;9.10;;;;;;;18.24;59.50;99519.47;4838235;29;20132;-90
2022/06/11 02:26:24;;;;;;;27.55;10.30;;;;;;;18.31;60.64;99508.59;4837562;29;20049;-92
2022/06/11 02:28:51;;;;;;;25.27;10.18;;;;;;;18.51;61.40;99509.44;4839559;29;20046;-91
2022/06/11 02:31:23;;;;;;;16.25;8.98;;;;;;;18.61;60.20;99500.56;4838098;29;20052;-90
2022/06/11 02:33:52;;;;;;;29.17;11.02;;;;;;;18.80;61.34;99521.16;4852619;29;20094;-93
2022/06/11 02:36:28;;;;;;;23.35;10.68;;;;;;;18.63;61.11;99483.56;4837650;29;20083;-91
2022/06/11 02:39:04;;;;;;;29.17;11.52;;;;;;;18.90;61.13;99513.06;4842753;29;20045;-92
2022/06/11 02:41:35;;;;;;;29.52;12.30;;;;;;;19.00;61.68;99509.69;4852912;29;20058;-92
2022/06/11 02:44:02;;;;;;;29.02;12.07;;;;;;;18.90;61.63;99484.56;4856647;29;20484;-90
2022/06/11 02:46:45;;;;;;;32.85;12.45;;;;;;;19.07;60.72;99514.59;4855621;29;20044;-91
2022/06/11 02:49:33;;;;;;;33.38;12.10;;;;;;;19.16;61.21;99515.16;4822084;29;20033;-92
2022/06/11 02:52:12;;;;;;;25.65;12.07;;;;;;;19.24;60.70;99519.69;4877219;29;20030;-92
2022/06/11 02:54:45;;;;;;;27.77;12.95;;;;;;;19.35;59.00;99521.88;4839571;29;20049;-91
2022/06/11 02:57:25;;;;;;;37.03;12.27;;;;;;;19.53;59.75;99541.59;4837002;29;20057;-91
2022/06/11 02:59:52;;;;;;;23.98;12.52;;;;;;;19.16;57.38;99481.91;4821908;29;20041;-91
2022/06/11 03:02:24;;;;;;;28.02;11.60;;;;;;;19.22;56.78;99493.50;4836542;29;20401;-92
2022/06/11 03:04:54;;;;;;;29.80;12.35;;;;;;;19.23;59.33;99487.59;4843803;29;20041;-91
2022/06/11 03:07:23;;;;;;;24.65;12.43;;;;;;;19.75;59.93;99549.19;4841346;29;20050;-91
2022/06/11 03:09:49;;;;;;;27.55;12.52;;;;;;;19.59;57.33;99515.97;4842764;29;20068;-91
2022/06/11 03:12:19;;;;;;;25.13;12.38;;;;;;;19.70;56.17;99530.88;4839705;29;20021;-91
2022/06/11 03:14:50;;;;;;;31.58;13.10;;;;;;;19.91;56.56;99544.31;4839073;29;20050;-92
2022/06/11 03:17:28;;;;;;;29.48;12.60;;;;;;;19.91;56.78;99524.09;4835742;29;20089;-91
2022/06/11 03:19:54;;;;;;;32.92;14.75;;;;;;;19.71;56.47;99479.00;4829074;29;20045;-91
2022/06/11 03:22:20;;;;;;;28.35;13.45;;;;;;;20.10;57.30;99531.56;4858618;29;20040;-91
2022/06/11 03:24:47;;;;;;;39.47;14.45;;;;;;;20.02;57.41;99504.84;4827813;29;20056;-91
2022/06/11 03:27:30;;;;;;;35.33;14.55;;;;;;;20.21;56.56;99523.41;4838487;29;20109;-91
2022/06/11 03:29:57;;;;;;;31.60;13.75;;;;;;;20.06;56.81;99495.41;4872565;29;20452;-91
2022/06/11 03:32:24;;;;;;;33.55;13.82;;;;;;;20.16;57.35;99511.44;4822932;29;20030;-91
2022/06/11 03:34:53;;;;;;;27.05;13.13;;;;;;;20.24;55.96;99520.69;4838741;29;20141;-91
2022/06/11 03:37:19;;;;;;;30.25;14.13;;;;;;;20.41;56.57;99539.56;4854948;29;20422;-90
2022/06/11 03:39:46;;;;;;;32.80;13.98;;;;;;;20.46;55.59;99543.19;4841582;29;20050;-93
2022/06/11 03:42:21;;;;;;;29.10;13.57;;;;;;;20.19;55.18;99488.47;4856459;29;20029;-92
2022/06/11 03:45:09;;;;;;;32.83;13.48;;;;;;;20.17;56.33;99474.19;4860443;29;20056;-91
2022/06/11 03:47:38;;;;;;;23.13;12.50;;;;;;;20.49;55.91;99529.38;4821600;29;20082;-92
2022/06/11 03:50:07;;;;;;;31.17;14.40;;;;;;;20.52;55.77;99527.84;4830258;29;20057;-92
2022/06/11 03:52:33;;;;;;;31.27;13.80;;;;;;;20.29;55.78;99478.69;4816213;29;20030;-96
2022/06/11 03:54:59;;;;;;;28.35;13.68;;;;;;;20.64;54.04;99524.88;4832082;29;20052;-94
2022/06/11 03:57:26;;;;;;;29.55;14.73;;;;;;;20.71;54.70;99535.28;4837079;29;20396;-91
2022/06/11 03:59:52;;;;;;;;;;;;;;;20.87;54.76;99552.56;4834417;29;20507;-91
2022/06/11 04:02:19;;;;;;;33.22;13.48;;;;;;;20.91;55.12;99558.97;4820059;29;20019;-94
2022/06/11 04:04:45;;;;;;;27.77;12.40;;;;;;;20.83;54.42;99535.06;4822297;29;20061;-95
2022/06/11 04:07:13;;;;;;;31.77;12.60;;;;;;;20.82;53.43;99536.22;4814850;29;20050;-95
2022/06/11 04:09:43;;;;;;;25.20;12.30;;;;;;;21.07;54.06;99561.56;4801870;29;20066;-96
2022/06/11 04:12:12;;;;;;;27.15;12.02;;;;;;;20.81;53.79;99504.06;4799189;29;20106;-91
2022/06/11 04:14:40;;;;;;;36.05;12.27;;;;;;;21.22;53.23;99563.31;4795841;29;20050;-91
2022/06/11 04:17:11;;;;;;;27.75;12.10;;;;;;;20.88;54.16;99502.16;4801418;29;20231;-93
2022/06/11 04:20:05;;;;;;;32.22;11.77;;;;;;;21.00;53.94;99503.09;4801304;29;20718;-92
2022/06/11 04:22:42;;;;;;;20.35;11.23;;;;;;;21.32;53.55;99534.03;4799249;29;20173;-92
2022/06/11 04:25:15;;;;;;;23.45;11.55;;;;;;;21.11;52.52;99496.47;4801429;29;20058;-92
2022/06/11 04:27:42;;;;;;;44.50;12.48;;;;;;;21.54;52.37;99554.59;4787852;29;20035;-92
2022/06/11 04:30:08;;;;;;;;;;;;;;;21.61;52.67;99551.06;4753535;29;20055;-91
2022/06/11 04:32:35;;;;;;;23.45;12.23;;;;;;;21.57;52.57;99526.00;4784967;29;20031;-91
2022/06/11 04:35:01;;;;;;;31.92;12.40;;;;;;;21.61;51.99;99524.06;4801213;29;20038;-91
2022/06/11 04:37:32;;;;;;;41.53;12.55;;;;;;;21.55;51.15;99501.34;4817265;29;20027;-89
2022/06/11 04:40:01;;;;;;;38.25;12.77;;;;;;;21.60;51.71;99496.63;4785366;29;20595;-91
2022/06/11 04:42:30;;;;;;;26.85;11.38;;;;;;;21.77;52.21;99516.25;4769970;29;20050;-92
2022/06/11 04:44:56;;;;;;;29.73;11.35;;;;;;;21.87;51.70;99530.66;4810047;29;20058;-91
2022/06/11 04:47:38;;;;;;;27.63;11.52;;;;;;;21.98;50.69;99534.31;4821875;29;20057;-91
2022/06/11 04:50:25;;;;;;;24.58;10.93;;;;;;;22.12;51.03;99548.38;4791600;29;20152;-90
2022/06/11 04:53:14;;;;;;;52.90;10.60;;;;;;;21.86;51.26;99510.38;4840101;29;20564;-90
2022/06/11 04:55:51;;;;;;;32.95;11.98;;;;;;;22.17;50.80;99541.69;4832145;29;20078;-91
2022/06/11 04:58:34;;;;;;;32.33;11.35;;;;;;;22.38;50.04;99566.91;4839878;29;20049;-90
2022/06/11 05:01:00;;;;;;;26.70;11.48;;;;;;;22.43;48.53;99563.78;4842605;29;20050;-91
2022/06/11 05:03:26;;;;;;;41.10;11.45;;;;;;;22.20;48.22;99522.22;4843376;29;20029;-89
2022/06/11 05:05:53;;;;;;;29.75;11.25;;;;;;;22.28;47.71;99523.88;4838167;29;20066;-92
2022/06/11 05:08:19;;;;;;;48.17;12.02;;;;;;;22.42;48.05;99539.09;4836882;29;20412;-91
2022/06/11 05:10:46;;;;;;;35.25;8.93;;;;;;;22.55;46.61;99534.81;4826969;29;20046;-93
2022/06/11 05:13:15;;;;;;;45.95;10.90;;;;;;;22.49;46.79;99511.28;4840068;29;20065;-92
2022/06/11 05:15:49;;;;;;;33.15;9.10;;;;;;;22.79;44.49;99547.28;4824762;29;20066;-93
2022/06/11 05:18:17;;;;;;;44.20;8.70;;;;;;;22.87;46.33;99550.91;4827711;29;20478;-90
2022/06/11 05:20:43;;;;;;;17.55;7.75;;;;;;;22.77;44.61;99516.19;4824406;29;20449;-90
2022/06/11 05:23:12;;;;;;;25.67;8.20;;;;;;;23.07;45.25;99555.00;4840447;29;20054;-90
2022/06/11 05:25:40;;;;;;;25.80;7.43;;;;;;;23.11;43.35;99536.31;4822007;29;20584;-92
2022/06/11 05:28:13;;;;;;;38.95;7.88;;;;;;;23.28;42.48;99545.94;4838983;29;20460;-90
2022/06/11 05:30:41;;;;;;;18.70;6.72;;;;;;;23.26;43.53;99537.16;4823044;29;20026;-90
2022/06/11 05:33:15;;;;;;;30.42;7.18;;;;;;;23.54;43.40;99569.94;4842949;29;20034;-90
2022/06/11 05:35:42;;;;;;;19.92;7.18;;;;;;;23.36;44.98;99518.84;5000392;23;20019;-89
2022/06/11 05:38:19;;;;;;;23.77;7.40;;;;;;;23.77;43.58;99566.81;4869441;29;20038;-90
2022/06/11 05:40:45;;;;;;;;;;;;;;;23.87;44.19;99554.06;4847723;29;20049;-91
2022/06/11 05:43:17;;;;;;;29.42;7.22;;;;;;;23.57;40.80;99507.72;4862317;29;19908;-88
2022/06/11 05:46:21;;;;;;;53.42;8.95;;;;;;;24.03;40.64;99562.06;4844897;29;20048;-91
2022/06/11 05:49:16;;;;;;;22.60;5.97;;;;;;;23.85;38.93;99518.19;4841366;29;20057;-93
2022/06/11 05:52:49;;;;;;;16.00;5.53;;;;;;;23.92;40.65;99504.22;4800593;29;20032;-93
2022/06/11 05:55:42;;;;;;;11.90;5.65;;;;;;;24.03;38.91;99529.34;4811081;29;20038;-91
2022/06/11 05:58:33;;;;;;;16.52;6.68;;;;;;;24.07;39.36;99544.13;4789509;29;20027;-92
2022/06/11 06:01:04;;;;;;;16.85;6.10;;;;;;;23.95;38.90;99511.00;4767786;29;20541;-91
2022/06/11 06:03:33;;;;;;;216.60;15.15;;;;;;;24.25;38.82;99549.69;4768093;29;20050;-96
2022/06/11 06:06:01;;;;;;;7.78;4.03;;;;;;;24.07;37.27;99534.94;4781475;30;20066;-96
2022/06/11 06:08:28;;;;;;;17.58;5.28;;;;;;;23.78;38.26;99509.00;4794122;29;20134;-92
2022/06/11 06:10:55;;;;;;;16.92;5.25;;;;;;;24.07;40.07;99563.69;4765231;30;20051;-94
2022/06/11 06:24:46;;;;;;;32.95;8.90;;;;;;;24.69;39.38;99575.63;4622311;30;20087;-93
2022/06/11 06:27:33;;;;;;;46.65;10.82;;;;;;;24.79;40.97;99578.41;4615723;31;20799;-93
2022/06/11 06:30:10;;;;;;;;;;;;;;;24.88;41.27;99594.75;4631782;30;20070;-94
2022/06/11 06:32:49;;;;;;;27.08;8.57;;;;;;;24.73;41.71;99582.78;4661910;30;19932;-93
2022/06/11 06:35:23;;;;;;;37.47;9.70;;;;;;;24.75;42.00;99596.38;4838869;23;20545;-92
2022/06/11 06:38:04;;;;;;;37.13;10.38;;;;;;;24.42;43.09;99550.13;4845518;29;20060;-92
2022/06/11 06:40:49;;;;;;;35.58;10.85;;;;;;;24.59;43.56;99582.84;4846347;29;20029;-93
2022/06/11 06:43:49;;;;;;;25.83;9.82;;;;;;;24.38;43.43;99566.88;4860193;29;20033;-93
2022/06/11 06:46:33;;;;;;;36.03;14.07;;;;;;;24.18;44.74;99534.94;4864535;29;20048;-96
2022/06/11 06:49:02;;;;;;;26.25;9.48;;;;;;;24.53;44.24;99576.84;4847950;29;20041;-91
2022/06/11 06:51:40;;;;;;;19.85;7.75;;;;;;;24.65;43.87;99572.03;4855225;29;20685;-91
2022/06/11 06:54:20;;;;;;;;;;;;;;;;;;;;;
2022/06/11 06:56:46;;;;;;;31.88;8.32;;;;;;;24.72;40.54;99564.44;4861974;29;20043;-90
2022/06/11 06:59:15;;;;;;;24.50;9.00;;;;;;;24.56;42.18;99525.72;4846618;29;20069;-92
2022/06/11 07:01:45;;;;;;;52.88;10.43;;;;;;;24.81;41.34;99567.63;4853152;29;20056;-93
2022/06/11 07:04:18;;;;;;;61.55;18.98;;;;;;;24.79;41.11;99558.03;4863898;29;20029;-91
2022/06/11 07:06:47;;;;;;;59.53;21.30;;;;;;;24.56;41.53;99525.72;4852454;29;20052;-94
2022/06/11 07:09:19;;;;;;;79.25;19.65;;;;;;;24.74;41.13;99572.44;4879041;29;20025;-92
2022/06/11 07:12:06;;;;;;;84.70;18.25;;;;;;;24.81;42.61;99561.22;4869535;29;20045;-92
2022/06/11 07:15:00;;;;;;;45.88;18.55;;;;;;;24.94;42.12;99567.19;4866900;29;20025;-93
2022/06/11 07:18:09;;;;;;;44.35;12.43;;;;;;;25.14;39.79;99593.53;4868040;29;20045;-92
2022/06/11 07:20:51;;;;;;;;;;;;;;;;;;;;;
2022/06/11 07:23:38;;;;;;;39.78;12.13;;;;;;;25.03;40.97;99562.78;4867327;29;20037;-93
2022/06/11 07:26:20;;;;;;;79.78;14.13;;;;;;;25.28;40.05;99575.88;4879119;29;20060;-92
2022/06/11 07:32:25;;;;;;;38.85;11.63;;;;;;;25.38;40.01;99549.06;4866169;29;20045;-92
2022/06/11 07:35:06;;;;;;;24.75;9.25;;;;;;;25.78;38.96;99573.59;4871703;29;20083;-93
2022/06/11 07:37:46;;;;;;;56.85;11.18;;;;;;;25.83;38.14;99574.41;4862125;29;20024;-91
2022/06/11 07:41:00;;;;;;;71.90;14.80;;;;;;;25.60;38.72;99538.53;4844303;29;20049;-92
2022/06/11 07:43:31;;;;;;;63.42;15.05;;;;;;;25.75;39.15;99579.22;4816290;29;20092;-92
2022/06/11 07:46:05;;;;;;;49.72;12.35;;;;;;;25.72;38.99;99586.44;4847805;29;20116;-92
2022/06/11 07:48:33;;;;;;;17.67;8.20;;;;;;;25.80;39.28;99578.00;4863399;29;20065;-93
2022/06/11 07:51:02;;;;;;;39.58;10.85;;;;;;;25.67;39.33;99566.50;4865271;29;20041;-92
2022/06/11 07:53:32;;;;;;;68.57;13.18;;;;;;;25.58;38.56;99571.72;4860090;29;20037;-92
2022/06/11 07:56:00;;;;;;;90.57;15.40;;;;;;;25.58;40.17;99582.94;4862515;29;20052;-91
2022/06/11 07:58:30;;;;;;;22.63;8.45;;;;;;;25.16;38.33;99553.94;4863121;29;20088;-91
2022/06/11 08:01:00;;;;;;;70.85;11.93;;;;;;;25.27;39.12;99608.66;4865108;29;20059;-92
2022/06/11 08:03:51;;;;;;;40.15;10.77;;;;;;;25.07;39.28;99585.91;4867539;29;20108;-89
2022/06/11 08:06:49;;;;;;;66.38;11.10;;;;;;;25.19;40.35;99607.06;4862817;29;20049;-90
2022/06/11 08:09:18;;;;;;;84.85;12.40;;;;;;;24.80;39.16;99563.22;4803426;29;20054;-90
2022/06/11 08:11:47;;;;;;;85.65;13.65;;;;;;;24.85;39.35;99587.97;4789570;29;20053;-91
2022/06/11 08:14:17;;;;;;;55.70;10.13;;;;;;;24.49;39.31;99576.06;4820108;29;20070;-92
2022/06/11 08:16:45;;;;;;;50.78;8.90;;;;;;;24.66;39.58;99624.75;4791676;29;20077;-90
2022/06/11 08:19:12;;;;;;;44.13;9.55;;;;;;;24.36;39.50;99611.16;4790461;29;20054;-93
2022/06/11 11:53:50;;;;;;;81.18;11.30;;;;;;;26.01;41.84;99598.28;5035039;23;20097;-91
2022/06/11 12:36:55;;;;;;;46.90;8.77;;;;;;;24.89;42.30;99550.81;4851551;29;20046;-94
2022/06/11 12:56:01;;;;;;;47.75;8.18;;;;;;;24.76;42.97;99589.59;4921711;29;20084;-92
2022/06/11 13:08:28;;;;;;;32.47;7.85;;;;;;;24.00;43.75;99543.31;4824137;29;20051;-93
2022/06/11 13:18:29;;;;;;;63.08;10.00;;;;;;;24.48;43.54;99565.28;4901348;23;20056;-91
2022/06/11 13:22:46;;;;;;;;;;;;;;;;;;;;;
2022/06/11 13:30:55;;;;;;;;;;;;;;;;;;;;;
2022/06/11 13:47:09;;;;;;;;;;;;;;;;;;;;;
2022/06/11 13:57:50;;;;;;;32.70;8.10;;;;;;;27.12;38.08;99515.13;4850631;29;20045;-90
2022/06/11 14:00:53;;;;;;;60.58;9.98;;;;;;;26.86;36.97;99489.41;4855185;29;20061;-90
2022/06/11 14:03:50;;;;;;;66.55;9.48;;;;;;;26.85;37.04;99470.94;4848299;29;20056;-90
2022/06/11 14:06:19;;;;;;;57.45;10.02;;;;;;;26.81;38.07;99475.03;4855540;29;20064;-88
2022/06/11 14:12:49;;;;;;;39.85;8.48;;;;;;;27.02;37.41;99507.63;4825128;29;20061;-90
2022/06/11 14:15:29;;;;;;;40.85;8.52;;;;;;;27.11;38.08;99516.34;4830150;29;20580;-88
2022/06/11 14:18:30;;;;;;;34.67;8.10;;;;;;;27.10;37.68;99509.13;4833722;29;20049;-93
2022/06/11 14:26:00;;;;;;;;;;;;;;;;;;;;;
2022/06/11 14:29:12;;;;;;;60.87;10.27;;;;;;;27.00;36.99;99468.78;4733205;30;20072;-92
2022/06/11 14:32:16;;;;;;;18.48;8.27;;;;;;;27.38;38.59;99517.22;4618936;31;20058;-92
2022/06/11 14:35:37;;;;;;;;;;;;;;;;;;;;;
2022/06/11 14:46:58;;;;;;;37.50;7.97;;;;;;;27.09;37.83;99501.94;4581133;31;20080;-93
2022/06/11 14:49:40;;;;;;;30.25;9.18;;;;;;;27.24;38.70;99505.38;4567107;31;20105;-93
2022/06/11 14:52:23;;;;;;;97.25;11.18;;;;;;;27.37;39.01;99521.22;4564291;31;20061;-95
2022/06/11 14:55:01;;;;;;;51.03;8.82;;;;;;;27.36;37.66;99508.41;4570859;31;20093;-92
2022/06/11 14:57:37;;;;;;;25.10;8.52;;;;;;;27.33;38.48;99517.66;4572676;31;20084;-93
2022/06/11 15:00:26;;;;;;;13.00;7.70;;;;;;;26.86;38.57;99523.06;4607031;31;20162;-90
2022/06/11 15:03:13;;;;;;;52.38;8.60;;;;;;;27.00;38.47;99521.28;4677454;30;20081;-90
2022/06/11 15:05:59;;;;;;;33.58;8.60;;;;;;;27.12;38.20;99531.97;4669030;30;20686;-89
2022/06/11 15:08:41;;;;;;;35.15;8.77;;;;;;;27.12;38.21;99529.97;4673676;30;20109;-89
2022/06/11 15:11:34;;;;;;;37.00;8.30;;;;;;;26.92;38.31;99500.91;4753744;30;20055;-94
2022/06/11 15:14:23;;;;;;;13.52;7.80;;;;;;;27.36;39.25;99538.50;4752773;30;20133;-90
2022/06/11 15:17:06;;;;;;;20.13;8.30;;;;;;;27.05;38.04;99530.06;4746861;30;20519;-91
2022/06/11 15:19:39;;;;;;;42.70;9.18;;;;;;;26.98;39.07;99544.13;4747696;30;20528;-90
2022/06/11 15:22:27;;;;;;;19.27;8.55;;;;;;;26.57;38.88;99518.97;4773561;29;20058;-90
2022/06/11 15:25:12;;;;;;;46.55;8.65;;;;;;;26.21;39.13;99497.66;4844966;29;20049;-91
2022/06/11 15:32:10;;;;;;;62.45;10.57;;;;;;;26.23;38.63;99559.72;4815846;29;20099;-93
2022/06/11 15:34:41;;;;;;;54.78;9.80;;;;;;;25.83;39.36;99507.19;4807600;29;20042;-91
2022/06/11 15:37:17;;;;;;;41.28;9.57;;;;;;;25.99;39.98;99544.69;4782922;29;20148;-93
2022/06/11 15:39:55;;;;;;;49.13;8.93;;;;;;;26.07;39.96;99542.63;4777125;29;20572;-91
2022/06/11 15:42:56;;;;;;;41.70;8.77;;;;;;;25.90;39.12;99482.75;4769216;29;20478;-92
2022/06/11 15:45:36;;;;;;;77.60;11.93;;;;;;;26.14;39.14;99513.75;4735788;30;20055;-95
2022/06/11 15:51:34;;;;;;;30.23;8.32;;;;;;;25.40;40.52;99463.47;4727575;30;20912;-90
2022/06/11 15:59:25;;;;;;;;;;;;;;;;;;;;;
2022/06/11 16:07:02;;;;;;;33.03;8.18;;;;;;;25.31;40.78;99510.72;4662399;30;20148;-92
2022/06/11 16:14:59;;;;;;;;;;;;;;;;;;;;;
2022/06/11 16:40:38;;;;;;;34.05;9.45;;;;;;;23.68;44.90;99458.34;4872851;29;20113;-94
2022/06/11 16:44:04;;;;;;;34.78;9.45;;;;;;;23.73;45.47;99490.66;4742025;30;20067;-93
2022/06/11 16:46:36;;;;;;;54.80;11.90;;;;;;;23.65;46.30;99498.19;4784314;23;1500622;-91
2022/06/11 16:58:40;;;;;;;40.75;9.52;;;;;;;23.30;47.61;99528.81;4840217;29;20049;-94
2022/06/11 17:01:17;;;;;;;53.08;10.55;;;;;;;22.78;47.51;99467.66;4828643;29;20143;-92
2022/06/11 17:04:28;;;;;;;47.33;11.55;;;;;;;22.71;47.93;99462.03;4859166;29;20109;-90
2022/06/11 17:07:21;;;;;;;46.00;11.07;;;;;;;22.66;48.45;99465.19;4850071;29;20157;-89
2022/06/11 17:09:47;;;;;;;44.00;10.95;;;;;;;22.79;49.04;99494.31;4825842;29;20069;-92
2022/06/11 17:12:18;;;;;;;55.58;12.73;;;;;;;22.46;49.14;99459.13;4850265;29;20250;-89
2022/06/11 17:15:01;;;;;;;81.10;13.07;;;;;;;22.55;49.41;99479.09;4840459;29;20055;-88
2022/06/11 17:17:37;;;;;;;54.63;12.13;;;;;;;22.41;49.76;99465.06;4844465;29;20049;-89
2022/06/11 17:20:05;;;;;;;60.15;11.57;;;;;;;22.61;49.76;99501.78;4852001;29;20135;-88
2022/06/11 17:22:32;;;;;;;58.90;11.98;;;;;;;22.40;49.77;99480.19;4852469;29;20049;-90
2022/06/11 17:25:09;;;;;;;34.83;10.98;;;;;;;22.21;50.31;99451.41;4841175;29;20112;-93
2022/06/11 17:27:36;;;;;;;51.05;12.63;;;;;;;22.48;49.89;99490.97;4830887;29;20033;-92
2022/06/11 17:30:12;;;;;;;54.58;11.98;;;;;;;22.13;49.71;99444.19;4825423;29;20049;-92
2022/06/11 17:32:39;;;;;;;55.33;12.80;;;;;;;22.34;50.56;99488.09;4833799;29;20101;-91
2022/06/11 17:35:06;;;;;;;34.17;12.40;;;;;;;22.36;50.32;99498.88;4854749;29;20049;-91
2022/06/11 17:37:37;;;;;;;41.72;12.52;;;;;;;22.18;49.65;99471.66;4848406;29;20070;-90
2022/06/11 17:40:28;;;;;;;35.28;12.63;;;;;;;22.35;50.60;99505.59;4836893;29;20448;-91
2022/06/11 17:50:35;;;;;;;64.43;12.82;;;;;;;22.09;50.47;99498.25;4727313;30;20044;-96
2022/06/11 17:53:15;;;;;;;65.88;15.25;;;;;;;22.10;49.80;99503.41;4766031;30;20598;-94
2022/06/11 17:55:41;;;;;;;49.05;15.30;;;;;;;22.04;50.60;99502.16;4800838;29;20050;-93
2022/06/11 17:58:07;;;;;;;38.58;14.98;;;;;;;21.72;50.77;99452.63;4800600;29;20091;-92
2022/06/11 18:00:33;;;;;;;45.13;14.48;;;;;;;22.00;51.42;99509.69;4776882;29;20454;-91
2022/06/11 18:03:20;;;;;;;52.50;13.65;;;;;;;21.93;51.87;99498.50;4789499;29;20110;-90
2022/06/11 18:05:50;;;;;;;44.17;15.32;;;;;;;21.63;51.20;99456.91;4804475;29;20070;-94
2022/06/11 18:08:16;;;;;;;51.00;15.30;;;;;;;21.88;51.45;99498.84;4789113;29;20043;-91
2022/06/11 18:10:45;;;;;;;51.95;15.38;;;;;;;21.68;50.96;99471.25;4783890;29;20050;-92
2022/06/11 18:13:19;;;;;;;39.20;13.70;;;;;;;21.93;51.45;99520.78;4792334;29;20061;-93
2022/06/11 18:15:53;;;;;;;30.58;15.10;;;;;;;21.53;51.19;99461.19;4796227;29;20050;-90
2022/06/11 18:18:52;;;;;;;35.85;15.90;;;;;;;21.68;51.72;99487.94;4788114;29;20038;-92
2022/06/11 18:26:56;;;;;;;27.27;15.35;;;;;;;21.69;53.03;99509.03;4807647;29;20046;-92
2022/06/11 18:29:25;;;;;;;38.55;14.93;;;;;;;21.43;53.31;99473.03;4796648;29;21068;-91
2022/06/11 18:31:52;;;;;;;47.65;14.10;;;;;;;21.63;52.85;99509.78;4803308;29;20042;-91
2022/06/11 18:34:22;;;;;;;86.32;15.65;;;;;;;21.29;56.48;99468.88;4812832;29;20046;-91
2022/06/11 18:36:51;;;;;;;47.95;13.32;;;;;;;21.37;56.32;99491.22;4794168;29;21030;-92
2022/06/11 18:39:17;;;;;;;35.40;13.73;;;;;;;21.34;59.65;99498.31;4796753;29;20046;-90
2022/06/11 18:41:44;;;;;;;32.10;14.18;;;;;;;21.20;60.89;99498.97;4822892;29;20034;-92
2022/06/11 18:44:12;;;;;;;28.42;14.55;;;;;;;21.08;63.18;99488.91;4819163;29;20054;-93
2022/06/11 18:46:38;;;;;;;33.47;14.55;;;;;;;21.28;65.09;99541.53;4814091;29;20517;-92
2022/06/11 18:49:05;;;;;;;26.42;13.32;;;;;;;21.18;61.47;99545.00;4816703;29;20528;-95
2022/06/11 18:51:34;;;;;;;35.67;14.65;;;;;;;21.03;63.78;99535.69;4822844;29;20034;-93
2022/06/11 18:54:04;;;;;;;50.63;25.35;;;;;;;20.72;66.51;99512.66;4827407;29;20125;-91
2022/06/11 18:56:34;;;;;;;46.35;25.27;;;;;;;20.62;66.87;99524.41;4856593;29;20049;-92
2022/06/11 18:59:08;;;;;;;39.70;19.80;;;;;;;20.72;66.30;99564.66;4819919;29;20041;-91
2022/06/11 19:01:35;;;;;;;32.45;15.27;;;;;;;20.51;65.91;99542.91;4826136;29;20045;-93
2022/06/11 19:04:03;;;;;;;45.63;18.25;;;;;;;20.40;68.99;99540.75;4798267;29;20089;-92
2022/06/11 19:06:29;;;;;;;52.92;18.05;;;;;;;20.15;69.58;99500.69;4812954;29;20053;-94
2022/06/11 19:08:59;;;;;;;41.80;16.70;;;;;;;20.18;70.82;99524.94;4802389;29;20034;-94
2022/06/11 19:11:25;;;;;;;34.00;17.63;;;;;;;20.39;71.44;99560.56;4796912;29;20048;-95
2022/06/11 19:13:51;;;;;;;;;;;;;;;20.32;70.97;99564.03;4812957;29;20042;-93
2022/06/11 19:16:19;;;;;;;37.72;19.52;;;;;;;19.87;72.44;99510.19;4786896;29;19924;-95